createdAt,value
2022-08-17T00:00:39.702Z,25.80
2022-08-17T00:03:10.320Z,25.70
2022-08-17T00:05:40.785Z,25.70
2022-08-17T00:08:09.271Z,25.70
2022-08-17T00:10:37.524Z,25.70
2022-08-17T00:13:10.466Z,25.70
2022-08-17T00:15:40.136Z,25.70
2022-08-17T00:19:06.138Z,25.70
2022-08-17T00:20:57.458Z,25.70
2022-08-17T00:23:25.615Z,25.70
2022-08-17T00:25:53.957Z,25.70
2022-08-17T00:28:22.131Z,25.70
2022-08-17T00:30:53.535Z,25.70
2022-08-17T00:33:24.339Z,25.70
2022-08-17T00:35:52.529Z,25.70
2022-08-17T00:38:20.705Z,25.70
2022-08-17T00:40:50.262Z,25.70
2022-08-17T00:43:21.315Z,25.70
2022-08-17T00:45:50.867Z,25.70
2022-08-17T00:48:29.851Z,25.70
2022-08-17T00:51:01.135Z,25.70
2022-08-17T00:53:30.888Z,25.70
2022-08-17T00:55:59.100Z,25.70
2022-08-17T00:58:30.449Z,25.70
2022-08-17T01:01:06.787Z,25.70
2022-08-17T01:03:34.958Z,25.70
2022-08-17T01:06:03.121Z,25.70
2022-08-17T01:08:32.004Z,25.70
2022-08-17T01:11:02.361Z,25.70
2022-08-17T01:13:38.193Z,25.70
2022-08-17T01:16:15.969Z,25.70
2022-08-17T01:18:44.608Z,25.70
2022-08-17T01:21:16.314Z,25.70
2022-08-17T01:23:45.901Z,25.70
2022-08-17T01:26:14.062Z,25.70
2022-08-17T01:28:54.896Z,25.70
2022-08-17T01:31:25.275Z,25.70
2022-08-17T01:33:53.463Z,25.70
2022-08-17T01:36:21.661Z,25.60
2022-08-17T01:38:51.219Z,25.70
2022-08-17T01:41:19.484Z,25.60
2022-08-17T01:43:49.908Z,25.60
2022-08-17T01:46:21.101Z,25.60
2022-08-17T01:48:51.130Z,25.70
2022-08-17T01:51:19.803Z,25.60
2022-08-17T01:53:50.768Z,25.60
2022-08-17T01:56:20.892Z,25.60
2022-08-17T01:58:49.012Z,25.60
2022-08-17T02:01:18.302Z,25.60
2022-08-17T02:03:59.168Z,25.60
2022-08-17T02:06:30.345Z,25.60
2022-08-17T02:09:02.754Z,25.60
2022-08-17T02:11:32.461Z,25.60
2022-08-17T02:14:02.896Z,25.60
2022-08-17T02:16:37.332Z,25.60
2022-08-17T02:19:07.647Z,25.60
2022-08-17T02:21:36.152Z,25.60
2022-08-17T02:24:06.036Z,25.60
2022-08-17T02:26:34.160Z,25.60
2022-08-17T02:29:02.323Z,25.60
2022-08-17T02:31:31.092Z,25.60
2022-08-17T02:34:03.326Z,25.60
2022-08-17T02:36:32.504Z,25.60
2022-08-17T02:39:01.501Z,25.60
2022-08-17T02:41:31.027Z,25.60
2022-08-17T02:43:59.204Z,25.60
2022-08-17T02:46:27.357Z,25.60
2022-08-17T02:48:55.531Z,25.60
2022-08-17T02:51:23.814Z,25.60
2022-08-17T02:53:51.932Z,25.60
2022-08-17T02:56:20.060Z,25.60
2022-08-17T02:58:49.517Z,25.60
2022-08-17T03:01:17.809Z,25.60
2022-08-17T03:03:45.962Z,25.60
2022-08-17T03:06:14.045Z,25.60
2022-08-17T03:08:42.147Z,25.60
2022-08-17T03:11:10.406Z,25.60
2022-08-17T03:13:39.015Z,25.60
2022-08-17T03:16:09.126Z,25.60
2022-08-17T03:18:37.253Z,25.60
2022-08-17T03:21:06.761Z,25.60
2022-08-17T03:23:40.850Z,25.60
2022-08-17T03:26:12.355Z,25.60
2022-08-17T03:28:43.598Z,25.60
2022-08-17T03:31:13.071Z,25.60
2022-08-17T03:33:41.248Z,25.60
2022-08-17T03:36:10.252Z,25.60
2022-08-17T03:38:39.171Z,25.60
2022-08-17T03:41:07.967Z,25.50
2022-08-17T03:43:36.078Z,25.50
2022-08-17T03:46:34.759Z,25.60
2022-08-17T03:49:23.703Z,25.60
2022-08-17T03:52:09.700Z,25.60
2022-08-17T03:54:55.306Z,25.60
2022-08-17T03:57:23.591Z,25.50
2022-08-17T03:59:51.820Z,25.50
2022-08-17T04:02:21.083Z,25.50
2022-08-17T04:04:51.381Z,25.50
2022-08-17T04:07:19.993Z,25.50
2022-08-17T04:09:48.209Z,25.50
2022-08-17T04:12:16.573Z,25.50
2022-08-17T04:14:53.329Z,25.50
2022-08-17T04:17:23.500Z,25.50
2022-08-17T04:19:53.182Z,25.50
2022-08-17T04:22:33.378Z,25.50
2022-08-17T04:25:17.677Z,25.50
2022-08-17T04:27:45.734Z,25.50
2022-08-17T04:30:14.414Z,25.50
2022-08-17T04:33:03.471Z,25.50
2022-08-17T04:35:45.600Z,25.50
2022-08-17T04:38:16.103Z,25.50
2022-08-17T04:41:01.394Z,25.50
2022-08-17T04:43:30.007Z,25.50
2022-08-17T04:45:59.160Z,25.50
2022-08-17T04:48:36.111Z,25.50
2022-08-17T04:51:09.164Z,25.50
2022-08-17T04:53:37.402Z,25.50
2022-08-17T04:56:06.032Z,25.50
2022-08-17T04:58:34.202Z,25.50
2022-08-17T05:01:02.556Z,25.50
2022-08-17T05:03:31.012Z,25.50
2022-08-17T05:05:59.170Z,25.50
2022-08-17T05:08:28.670Z,25.50
2022-08-17T05:10:56.795Z,25.50
2022-08-17T05:13:25.833Z,25.50
2022-08-17T05:15:55.301Z,25.50
2022-08-17T05:18:24.447Z,25.50
2022-08-17T05:20:52.850Z,25.50
2022-08-17T05:23:22.105Z,25.50
2022-08-17T05:25:52.997Z,25.50
2022-08-17T05:28:24.021Z,25.50
2022-08-17T05:30:52.425Z,25.50
2022-08-17T05:33:21.498Z,25.50
2022-08-17T05:35:50.926Z,25.50
2022-08-17T05:38:20.202Z,25.60
2022-08-17T05:40:48.468Z,25.50
2022-08-17T05:43:19.194Z,25.60
2022-08-17T05:45:55.412Z,25.50
2022-08-17T05:48:35.479Z,25.60
2022-08-17T05:51:25.309Z,25.60
2022-08-17T05:53:58.248Z,25.50
2022-08-17T05:56:39.481Z,25.60
2022-08-17T05:59:10.685Z,25.60
2022-08-17T06:01:47.577Z,25.60
2022-08-17T06:04:18.304Z,25.50
2022-08-17T06:06:48.203Z,25.60
2022-08-17T06:09:36.662Z,25.60
2022-08-17T06:12:14.338Z,25.60
2022-08-17T06:14:58.430Z,25.60
2022-08-17T06:17:27.075Z,25.60
2022-08-17T06:19:55.990Z,25.60
2022-08-17T06:22:26.614Z,25.60
2022-08-17T06:24:56.726Z,25.60
2022-08-17T06:27:35.934Z,25.60
2022-08-17T06:30:09.237Z,25.60
2022-08-17T06:32:38.214Z,25.60
2022-08-17T06:35:08.094Z,25.60
2022-08-17T06:37:51.311Z,25.60
2022-08-17T06:40:34.104Z,25.60
2022-08-17T06:43:12.681Z,25.60
2022-08-17T06:45:49.095Z,25.60
2022-08-17T06:48:24.372Z,25.60
2022-08-17T06:50:54.513Z,25.60
2022-08-17T06:53:24.623Z,25.60
2022-08-17T06:55:56.976Z,25.60
2022-08-17T06:58:29.590Z,25.60
2022-08-17T07:01:01.090Z,25.60
2022-08-17T07:03:33.355Z,25.60
2022-08-17T07:06:04.445Z,25.60
2022-08-17T07:08:41.542Z,25.60
2022-08-17T07:11:13.007Z,25.60
2022-08-17T07:13:51.213Z,25.60
2022-08-17T07:16:24.974Z,25.60
2022-08-17T07:18:54.767Z,25.60
2022-08-17T07:21:38.514Z,25.60
2022-08-17T07:24:29.537Z,25.60
2022-08-17T07:27:12.681Z,25.70
2022-08-17T07:29:43.950Z,25.60
2022-08-17T07:32:13.557Z,25.60
2022-08-17T07:35:01.400Z,25.60
2022-08-17T07:37:32.329Z,25.60
2022-08-17T07:40:16.047Z,25.60
2022-08-17T07:42:46.808Z,25.60
2022-08-17T07:45:28.854Z,25.60
2022-08-17T07:48:15.977Z,25.60
2022-08-17T07:50:49.453Z,25.60
2022-08-17T07:53:19.190Z,25.60
2022-08-17T07:55:47.337Z,25.70
2022-08-17T07:58:17.316Z,25.70
2022-08-17T08:00:45.482Z,25.70
2022-08-17T08:03:27.074Z,25.70
2022-08-17T08:05:57.795Z,25.70
2022-08-17T08:08:33.011Z,25.70
2022-08-17T08:11:09.551Z,25.70
2022-08-17T08:13:42.440Z,25.70
2022-08-17T08:16:24.412Z,25.70
2022-08-17T08:18:57.189Z,25.70
2022-08-17T08:21:38.082Z,25.70
2022-08-17T08:24:26.383Z,25.70
2022-08-17T08:27:04.267Z,25.70
2022-08-17T08:29:36.947Z,25.70
2022-08-17T08:32:13.161Z,25.70
2022-08-17T08:35:01.025Z,25.70
2022-08-17T08:37:40.493Z,25.70
2022-08-17T08:40:29.851Z,25.70
2022-08-17T08:43:02.365Z,25.70
2022-08-17T08:45:34.106Z,25.70
2022-08-17T08:48:12.720Z,25.70
2022-08-17T08:50:55.773Z,25.70
2022-08-17T08:53:30.880Z,25.70
2022-08-17T08:56:01.208Z,25.70
2022-08-17T08:58:42.093Z,25.80
2022-08-17T09:01:17.142Z,25.80
2022-08-17T09:04:25.092Z,25.80
2022-08-17T09:07:01.924Z,25.80
2022-08-17T09:09:34.661Z,25.80
2022-08-17T09:12:06.465Z,25.80
2022-08-17T09:14:45.210Z,25.80
2022-08-17T09:17:17.190Z,25.80
2022-08-17T09:19:49.322Z,25.80
2022-08-17T09:22:26.391Z,25.80
2022-08-17T09:24:58.422Z,25.80
2022-08-17T09:27:29.036Z,25.80
2022-08-17T09:30:00.018Z,25.80
2022-08-17T09:32:32.279Z,25.80
2022-08-17T09:35:01.921Z,25.90
2022-08-17T09:37:35.008Z,25.90
2022-08-17T09:40:09.533Z,25.90
2022-08-17T09:42:41.456Z,25.90
2022-08-17T09:45:17.698Z,25.90
2022-08-17T09:47:49.469Z,25.90
2022-08-17T09:51:03.914Z,25.90
2022-08-17T09:53:11.321Z,25.90
2022-08-17T09:55:47.606Z,25.90
2022-08-17T09:58:18.472Z,25.90
2022-08-17T10:00:53.132Z,25.90
2022-08-17T10:03:29.162Z,25.90
2022-08-17T10:06:00.497Z,25.90
2022-08-17T10:08:36.787Z,25.90
2022-08-17T10:11:10.070Z,25.90
2022-08-17T10:13:47.162Z,26.00
2022-08-17T10:16:24.439Z,26.00
2022-08-17T10:19:04.689Z,26.00
2022-08-17T10:21:51.226Z,26.00
2022-08-17T10:25:21.010Z,26.00
2022-08-17T10:27:42.882Z,26.00
2022-08-17T10:30:13.873Z,26.00
2022-08-17T10:32:47.474Z,26.00
2022-08-17T10:35:42.888Z,26.00
2022-08-17T10:38:38.818Z,26.00
2022-08-17T10:41:27.807Z,26.00
2022-08-17T10:44:38.658Z,26.00
2022-08-17T10:46:57.553Z,26.00
2022-08-17T10:49:29.397Z,26.00
2022-08-17T10:51:58.193Z,26.00
2022-08-17T10:54:58.681Z,26.00
2022-08-17T10:57:42.610Z,26.00
2022-08-17T11:00:16.468Z,26.00
2022-08-17T11:02:49.607Z,26.00
2022-08-17T11:05:41.482Z,26.00
2022-08-17T11:08:35.663Z,26.00
2022-08-17T11:11:19.933Z,26.00
2022-08-17T11:14:08.641Z,26.00
2022-08-17T11:16:47.916Z,26.00
2022-08-17T11:19:53.652Z,26.00
2022-08-17T11:22:49.911Z,26.10
2022-08-17T11:25:19.276Z,26.10
2022-08-17T11:27:49.601Z,26.10
2022-08-17T11:30:44.388Z,26.10
2022-08-17T11:33:49.980Z,26.10
2022-08-17T11:36:21.792Z,26.10
2022-08-17T11:38:54.077Z,26.10
2022-08-17T11:41:28.697Z,26.20
2022-08-17T11:44:20.615Z,26.20
2022-08-17T11:47:29.166Z,26.10
2022-08-17T11:50:28.820Z,26.20
2022-08-17T11:52:57.016Z,26.20
2022-08-17T11:56:02.858Z,26.20
2022-08-17T11:58:39.165Z,26.20
2022-08-17T12:01:07.928Z,26.30
2022-08-17T12:03:54.251Z,26.30
2022-08-17T12:06:43.264Z,26.30
2022-08-17T12:09:15.814Z,26.30
2022-08-17T12:12:01.579Z,26.30
2022-08-17T12:15:07.999Z,26.30
2022-08-17T12:17:39.217Z,26.30
2022-08-17T12:20:16.312Z,26.30
2022-08-17T12:22:53.373Z,26.30
2022-08-17T12:25:23.391Z,26.30
2022-08-17T12:28:05.571Z,26.30
2022-08-17T12:30:35.393Z,26.40
2022-08-17T12:33:03.578Z,26.40
2022-08-17T12:35:35.957Z,26.40
2022-08-17T12:38:04.421Z,26.40
2022-08-17T12:40:33.170Z,26.40
2022-08-17T12:43:02.942Z,26.40
2022-08-17T12:45:32.459Z,26.40
2022-08-17T12:48:07.710Z,26.40
2022-08-17T12:50:38.480Z,26.40
2022-08-17T12:53:11.851Z,26.50
2022-08-17T12:55:40.831Z,26.50
2022-08-17T12:58:14.481Z,26.50
2022-08-17T13:00:47.620Z,26.50
2022-08-17T13:03:19.152Z,26.50
2022-08-17T13:05:57.684Z,26.50
2022-08-17T13:08:29.882Z,26.50
2022-08-17T13:10:59.270Z,26.50
2022-08-17T13:13:28.525Z,26.50
2022-08-17T13:15:57.958Z,26.50
2022-08-17T13:18:41.664Z,26.50
2022-08-17T13:21:18.748Z,26.50
2022-08-17T13:23:59.278Z,26.50
2022-08-17T13:26:30.470Z,26.50
2022-08-17T13:28:58.816Z,26.50
2022-08-17T13:31:49.177Z,26.50
2022-08-17T13:34:34.112Z,26.50
2022-08-17T13:37:29.605Z,26.60
2022-08-17T13:40:00.913Z,26.50
2022-08-17T13:42:34.477Z,26.60
2022-08-17T13:45:43.751Z,26.50
2022-08-17T13:48:20.721Z,26.50
2022-08-17T13:50:50.374Z,26.50
2022-08-17T13:53:23.331Z,26.50
2022-08-17T13:55:52.959Z,26.50
2022-08-17T13:58:22.061Z,26.50
2022-08-17T14:00:51.625Z,26.60
2022-08-17T14:03:20.004Z,26.60
2022-08-17T14:05:48.386Z,26.60
2022-08-17T14:08:16.821Z,26.50
2022-08-17T14:10:46.539Z,26.60
2022-08-17T14:13:15.333Z,26.60
2022-08-17T14:15:54.731Z,26.60
2022-08-17T14:18:31.204Z,26.60
2022-08-17T14:21:13.105Z,26.60
2022-08-17T14:23:41.991Z,26.60
2022-08-17T14:26:18.803Z,26.60
2022-08-17T14:28:54.519Z,26.60
2022-08-17T14:31:24.311Z,26.60
2022-08-17T14:33:55.546Z,26.60
2022-08-17T14:36:23.710Z,26.60
2022-08-17T14:38:51.838Z,26.60
2022-08-17T14:41:23.433Z,26.70
2022-08-17T14:43:52.897Z,26.70
2022-08-17T14:46:21.131Z,26.70
2022-08-17T14:48:57.215Z,26.70
2022-08-17T14:51:26.340Z,26.70
2022-08-17T14:53:54.523Z,26.70
2022-08-17T14:56:23.999Z,26.70
2022-08-17T14:58:52.489Z,26.70
2022-08-17T15:01:20.823Z,26.70
2022-08-17T15:03:49.107Z,26.70
2022-08-17T15:06:17.392Z,26.70
2022-08-17T15:08:45.964Z,26.70
2022-08-17T15:11:14.709Z,26.70
2022-08-17T15:13:52.045Z,26.70
2022-08-17T15:16:21.513Z,26.70
2022-08-17T15:18:50.185Z,26.70
2022-08-17T15:21:18.706Z,26.70
2022-08-17T15:23:47.771Z,26.70
2022-08-17T15:26:16.846Z,26.70
2022-08-17T15:28:48.980Z,26.70
2022-08-17T15:31:31.890Z,26.70
2022-08-17T15:34:00.644Z,26.70
2022-08-17T15:36:28.898Z,26.70
2022-08-17T15:38:58.796Z,26.70
2022-08-17T15:41:28.100Z,26.70
2022-08-17T15:43:57.664Z,26.70
2022-08-17T15:46:26.502Z,26.70
2022-08-17T15:48:58.286Z,26.70
2022-08-17T15:51:27.555Z,26.70
2022-08-17T15:53:56.671Z,26.70
2022-08-17T15:56:26.264Z,26.70
2022-08-17T15:58:55.341Z,26.70
2022-08-17T16:01:31.308Z,26.70
2022-08-17T16:04:30.496Z,26.70
2022-08-17T16:06:59.909Z,26.70
2022-08-17T16:09:28.247Z,26.70
2022-08-17T16:11:56.638Z,26.70
2022-08-17T16:14:32.315Z,26.70
2022-08-17T16:17:04.624Z,26.70
2022-08-17T16:19:33.416Z,26.70
2022-08-17T16:22:01.649Z,26.70
2022-08-17T16:24:29.764Z,26.70
2022-08-17T16:26:57.910Z,26.70
2022-08-17T16:29:26.062Z,26.70
2022-08-17T16:31:54.463Z,26.70
2022-08-17T16:34:23.962Z,26.70
2022-08-17T16:36:55.886Z,26.70
2022-08-17T16:39:26.104Z,26.70
2022-08-17T16:41:54.478Z,26.70
2022-08-17T16:44:22.710Z,26.70
2022-08-17T16:46:51.321Z,26.70
2022-08-17T16:49:36.200Z,26.70
2022-08-17T16:52:10.095Z,26.70
2022-08-17T16:54:40.663Z,26.70
2022-08-17T16:57:08.820Z,26.70
2022-08-17T16:59:40.857Z,26.60
2022-08-17T17:02:13.765Z,26.70
2022-08-17T17:04:51.780Z,26.70
2022-08-17T17:07:41.400Z,26.60
2022-08-17T17:10:10.882Z,26.60
2022-08-17T17:13:03.833Z,26.60
2022-08-17T17:15:29.786Z,26.60
2022-08-17T17:17:59.902Z,26.60
2022-08-17T17:20:37.466Z,26.60
2022-08-17T17:23:11.327Z,26.60
2022-08-17T17:25:46.764Z,26.60
2022-08-17T17:28:20.096Z,26.60
2022-08-17T17:30:50.708Z,26.50
2022-08-17T17:33:21.307Z,26.50
2022-08-17T17:35:50.631Z,26.50
2022-08-17T17:38:22.075Z,26.50
2022-08-17T17:40:52.224Z,26.50
2022-08-17T17:43:38.379Z,26.50
2022-08-17T17:46:26.837Z,26.50
2022-08-17T17:48:57.020Z,26.50
2022-08-17T17:52:08.501Z,26.60
2022-08-17T17:54:28.071Z,26.60
2022-08-17T17:57:06.763Z,26.50
2022-08-17T17:59:43.764Z,26.60
2022-08-17T18:02:41.146Z,26.50
2022-08-17T18:05:13.862Z,26.50
2022-08-17T18:07:43.779Z,26.50
2022-08-17T18:10:29.211Z,26.50
2022-08-17T18:13:00.832Z,26.60
2022-08-17T18:15:31.481Z,26.70
2022-08-17T18:18:37.476Z,26.60
2022-08-17T18:21:08.097Z,26.40
2022-08-17T18:23:36.236Z,26.30
2022-08-17T18:26:06.129Z,26.10
2022-08-17T18:28:35.601Z,26.10
2022-08-17T18:31:10.945Z,26.00
2022-08-17T18:33:39.264Z,26.00
2022-08-17T18:36:07.843Z,26.00
2022-08-17T18:38:40.119Z,25.90
2022-08-17T18:41:23.695Z,25.80
2022-08-17T18:44:00.644Z,25.80
2022-08-17T18:46:31.298Z,25.70
2022-08-17T18:49:04.888Z,25.70
2022-08-17T18:51:40.548Z,25.70
2022-08-17T18:54:16.509Z,25.70
2022-08-17T18:56:49.695Z,25.60
2022-08-17T18:59:35.705Z,25.60
2022-08-17T19:02:45.140Z,25.60
2022-08-17T19:05:26.580Z,25.50
2022-08-17T19:07:54.806Z,25.40
2022-08-17T19:10:24.503Z,25.40
2022-08-17T19:13:00.640Z,25.40
2022-08-17T19:15:31.826Z,25.40
2022-08-17T19:18:01.882Z,25.40
2022-08-17T19:20:31.814Z,25.40
2022-08-17T19:23:13.956Z,25.30
2022-08-17T19:25:46.337Z,25.30
2022-08-17T19:28:22.505Z,25.20
2022-08-17T19:30:55.465Z,25.20
2022-08-17T19:33:23.706Z,25.00
2022-08-17T19:35:58.872Z,24.80
2022-08-17T19:38:33.961Z,24.50
2022-08-17T19:41:04.727Z,24.40
2022-08-17T19:44:07.103Z,24.30
2022-08-17T19:46:48.493Z,24.20
2022-08-17T19:49:22.767Z,24.20
2022-08-17T19:52:03.831Z,24.10
2022-08-17T19:54:38.832Z,24.10
2022-08-17T19:57:10.523Z,24.00
2022-08-17T19:59:49.939Z,24.00
2022-08-17T20:02:26.182Z,24.00
2022-08-17T20:04:55.026Z,24.00
2022-08-17T20:07:24.949Z,23.90
2022-08-17T20:09:54.716Z,23.90
2022-08-17T20:12:25.836Z,23.90
2022-08-17T20:14:58.145Z,23.90
2022-08-17T20:17:28.602Z,23.80
2022-08-17T20:19:59.734Z,23.80
2022-08-17T20:22:30.463Z,23.80
2022-08-17T20:25:11.664Z,23.80
2022-08-17T20:27:49.819Z,23.80
2022-08-17T20:30:34.628Z,23.70
2022-08-17T20:33:03.341Z,23.70
2022-08-17T20:35:32.155Z,23.70
2022-08-17T20:38:01.957Z,23.70
2022-08-17T20:40:38.373Z,23.60
2022-08-17T20:43:40.052Z,23.60
2022-08-17T20:46:17.520Z,23.60
2022-08-17T20:48:46.991Z,23.60
2022-08-17T20:51:20.087Z,23.60
2022-08-17T20:54:17.054Z,23.50
2022-08-17T20:56:57.768Z,23.50
2022-08-17T20:59:55.128Z,23.50
2022-08-17T21:02:25.500Z,23.50
2022-08-17T21:05:35.351Z,23.50
2022-08-17T21:08:14.144Z,23.50
2022-08-17T21:10:45.557Z,23.50
2022-08-17T21:13:41.587Z,23.50
2022-08-17T21:16:25.680Z,23.40
2022-08-17T21:18:59.269Z,23.40
2022-08-17T21:21:30.286Z,23.40
2022-08-17T21:24:08.530Z,23.40
2022-08-17T21:26:50.337Z,23.40
2022-08-17T21:29:31.105Z,23.40
2022-08-17T21:32:19.097Z,23.40
2022-08-17T21:35:28.217Z,23.40
2022-08-17T21:38:03.574Z,23.40
2022-08-17T21:40:33.012Z,23.40
2022-08-17T21:43:08.261Z,23.40
2022-08-17T21:45:37.391Z,23.30
2022-08-17T21:48:12.652Z,23.30
2022-08-17T21:50:41.773Z,23.30
2022-08-17T21:53:13.735Z,23.30
2022-08-17T21:55:41.877Z,23.20
2022-08-17T21:58:24.392Z,23.20
2022-08-17T22:01:14.635Z,23.30
2022-08-17T22:03:42.788Z,23.20
2022-08-17T22:06:21.686Z,23.20
2022-08-17T22:09:02.599Z,23.20
2022-08-17T22:11:31.322Z,23.20
2022-08-17T22:14:05.550Z,23.20
2022-08-17T22:16:34.840Z,23.20
2022-08-17T22:19:03.096Z,23.20
2022-08-17T22:21:31.337Z,23.20
2022-08-17T22:24:06.186Z,23.10
2022-08-17T22:27:00.534Z,23.10
2022-08-17T22:29:45.710Z,23.10
2022-08-17T22:32:35.026Z,23.10
2022-08-17T22:35:32.617Z,23.10
2022-08-17T22:38:33.793Z,23.10
2022-08-17T22:41:26.994Z,23.10
2022-08-17T22:43:57.485Z,23.10
2022-08-17T22:46:25.624Z,23.10
2022-08-17T22:48:57.661Z,23.00
2022-08-17T22:51:28.947Z,23.10
2022-08-17T22:54:16.167Z,23.00
2022-08-17T22:57:08.530Z,23.00
2022-08-17T22:59:45.225Z,23.00
2022-08-17T23:02:22.444Z,23.00
2022-08-17T23:04:52.463Z,23.00
2022-08-17T23:07:21.038Z,23.00
2022-08-17T23:09:49.151Z,22.90
2022-08-17T23:12:23.275Z,23.00
2022-08-17T23:14:52.561Z,22.90
2022-08-17T23:17:20.958Z,22.90
2022-08-17T23:19:49.095Z,22.90
2022-08-17T23:22:17.254Z,22.90
2022-08-17T23:24:46.427Z,22.90
2022-08-17T23:27:14.592Z,22.90
2022-08-17T23:29:44.076Z,22.80
2022-08-17T23:32:14.712Z,22.80
2022-08-17T23:34:43.857Z,22.80
2022-08-17T23:37:12.578Z,22.80
2022-08-17T23:39:40.830Z,22.70
2022-08-17T23:42:10.410Z,22.70
2022-08-17T23:44:38.630Z,22.70
2022-08-17T23:47:08.917Z,22.70
2022-08-17T23:49:37.544Z,22.70
2022-08-17T23:52:06.279Z,22.70
2022-08-17T23:54:37.456Z,22.80
2022-08-17T23:57:05.906Z,22.70
2022-08-17T23:59:34.049Z,22.70
